createdAt,value
2023-02-06T00:04:24.447Z,14.33
2023-02-06T00:06:59.379Z,12.03
2023-02-06T00:09:29.591Z,12.50
2023-02-06T00:11:57.087Z,14.40
2023-02-06T00:14:27.634Z,12.57
2023-02-06T00:16:58.495Z,10.77
2023-02-06T00:19:27.438Z,15.07
2023-02-06T00:21:58.092Z,12.07
2023-02-06T00:24:29.783Z,13.27
2023-02-06T00:27:02.586Z,13.20
2023-02-06T00:29:43.269Z,13.70
2023-02-06T00:32:14.768Z,13.67
2023-02-06T00:34:44.706Z,14.80
2023-02-06T00:37:21.111Z,13.40
2023-02-06T00:39:49.532Z,13.43
2023-02-06T00:42:20.858Z,14.50
2023-02-06T00:44:52.674Z,12.53
2023-02-06T00:47:21.340Z,13.43
2023-02-06T00:49:48.826Z,12.53
2023-02-06T00:52:21.984Z,12.50
2023-02-06T00:54:52.000Z,12.53
2023-02-06T00:57:19.420Z,14.33
2023-02-06T00:59:50.455Z,11.77
2023-02-06T01:02:18.434Z,12.57
2023-02-06T01:04:48.951Z,12.00
2023-02-06T01:07:25.199Z,11.63
2023-02-06T01:09:56.107Z,11.73
2023-02-06T01:12:29.847Z,11.13
2023-02-06T01:14:57.430Z,12.33
2023-02-06T01:17:25.721Z,11.57
2023-02-06T01:19:58.222Z,13.07
2023-02-06T01:22:29.158Z,12.73
2023-02-06T01:24:58.018Z,10.97
2023-02-06T01:27:28.823Z,11.30
2023-02-06T01:30:07.589Z,13.47
2023-02-06T01:32:39.992Z,11.23
2023-02-06T01:35:13.495Z,12.90
2023-02-06T01:37:56.134Z,11.40
2023-02-06T01:40:27.382Z,10.33
2023-02-06T01:42:54.430Z,11.57
2023-02-06T01:45:42.955Z,12.03
2023-02-06T01:48:34.956Z,12.53
2023-02-06T01:51:03.705Z,10.53
2023-02-06T01:53:36.986Z,13.33
2023-02-06T01:56:12.794Z,11.50
2023-02-06T01:58:46.742Z,10.80
2023-02-06T02:01:18.620Z,11.00
2023-02-06T02:03:51.536Z,10.60
2023-02-06T02:06:28.590Z,11.10
2023-02-06T02:09:03.155Z,12.53
2023-02-06T02:11:41.605Z,10.63
2023-02-06T02:14:14.101Z,12.43
2023-02-06T02:16:55.606Z,10.40
2023-02-06T02:20:08.106Z,10.03
2023-02-06T02:23:21.623Z,10.63
2023-02-06T02:26:21.366Z,9.40
2023-02-06T02:29:14.618Z,11.33
2023-02-06T02:32:13.474Z,12.50
2023-02-06T02:35:00.264Z,12.17
2023-02-06T02:38:05.967Z,12.27
2023-02-06T02:40:59.378Z,11.43
2023-02-06T02:43:50.530Z,10.70
2023-02-06T02:46:44.514Z,13.53
2023-02-06T02:49:30.513Z,11.97
2023-02-06T02:52:00.587Z,11.50
2023-02-06T02:54:33.162Z,11.80
2023-02-06T02:57:24.529Z,11.53
2023-02-06T02:59:55.193Z,12.33
2023-02-06T03:02:34.973Z,12.57
2023-02-06T03:05:14.269Z,12.07
2023-02-06T03:08:28.423Z,12.83
2023-02-06T03:11:24.789Z,12.23
2023-02-06T03:14:30.291Z,13.57
2023-02-06T03:17:09.009Z,13.83
2023-02-06T03:19:54.183Z,11.63
2023-02-06T03:22:30.300Z,13.30
2023-02-06T03:25:10.146Z,11.83
2023-02-06T03:27:43.295Z,11.90
2023-02-06T03:30:21.450Z,11.97
2023-02-06T03:33:00.504Z,11.50
2023-02-06T03:35:38.094Z,11.63
2023-02-06T03:38:08.472Z,11.20
2023-02-06T03:40:41.442Z,11.87
2023-02-06T03:43:16.331Z,12.17
2023-02-06T03:45:50.461Z,14.37
2023-02-06T03:48:50.849Z,13.17
2023-02-06T03:51:37.909Z,13.63
2023-02-06T03:54:13.424Z,13.70
2023-02-06T03:56:55.653Z,13.07
2023-02-06T03:59:32.015Z,11.93
2023-02-06T04:02:07.020Z,12.37
2023-02-06T04:04:42.359Z,14.40
2023-02-06T04:07:31.133Z,12.53
2023-02-06T04:10:00.710Z,13.73
2023-02-06T04:12:35.381Z,13.67
2023-02-06T04:15:04.956Z,13.23
2023-02-06T04:17:49.707Z,12.60
2023-02-06T04:20:23.632Z,12.73
2023-02-06T04:22:58.438Z,11.90
2023-02-06T04:25:27.382Z,11.20
2023-02-06T04:27:59.909Z,11.87
2023-02-06T04:30:32.680Z,11.53
2023-02-06T04:33:09.451Z,12.23
2023-02-06T04:35:38.822Z,12.23
2023-02-06T04:38:07.394Z,11.57
2023-02-06T04:40:34.696Z,13.37
2023-02-06T04:43:02.740Z,11.80
2023-02-06T04:45:34.855Z,13.03
2023-02-06T04:48:05.265Z,14.53
2023-02-06T04:50:37.827Z,13.70
2023-02-06T04:53:09.082Z,12.23
2023-02-06T04:55:39.924Z,12.53
2023-02-06T04:58:11.266Z,13.40
2023-02-06T05:00:41.402Z,11.63
2023-02-06T05:03:09.736Z,12.07
2023-02-06T05:05:40.738Z,12.37
2023-02-06T05:08:13.778Z,13.30
2023-02-06T05:10:46.298Z,14.07
2023-02-06T05:13:17.264Z,12.57
2023-02-06T05:15:45.580Z,11.67
2023-02-06T05:18:17.420Z,13.23
2023-02-06T05:20:50.937Z,11.80
2023-02-06T05:23:26.006Z,13.00
2023-02-06T05:25:53.696Z,11.23
2023-02-06T05:28:25.216Z,12.27
2023-02-06T05:30:56.165Z,12.47
2023-02-06T05:33:29.277Z,10.53
2023-02-06T05:36:10.934Z,12.50
2023-02-06T05:38:42.870Z,12.83
2023-02-06T05:41:10.676Z,13.03
2023-02-06T05:43:38.335Z,13.50
2023-02-06T05:46:09.871Z,13.43
2023-02-06T05:48:41.418Z,13.53
2023-02-06T05:51:14.607Z,12.60
2023-02-06T05:53:46.102Z,13.67
2023-02-06T05:56:15.155Z,13.37
2023-02-06T05:58:43.872Z,12.60
2023-02-06T06:01:17.497Z,13.40
2023-02-06T06:03:48.349Z,13.27
2023-02-06T06:06:22.961Z,14.00
2023-02-06T06:08:53.006Z,13.87
2023-02-06T06:11:22.813Z,13.80
2023-02-06T06:13:55.810Z,14.47
2023-02-06T06:16:28.619Z,14.53
2023-02-06T06:19:06.373Z,13.70
2023-02-06T06:21:38.056Z,13.47
2023-02-06T06:24:09.515Z,12.73
2023-02-06T06:26:40.304Z,12.93
2023-02-06T06:29:12.582Z,12.93
2023-02-06T06:31:46.172Z,13.93
2023-02-06T06:34:20.583Z,15.07
2023-02-06T06:36:52.304Z,13.13
2023-02-06T06:39:23.640Z,13.70
2023-02-06T06:41:53.866Z,14.27
2023-02-06T06:44:24.125Z,13.97
2023-02-06T06:46:56.241Z,13.53
2023-02-06T06:49:29.854Z,13.43
2023-02-06T06:52:01.884Z,13.40
2023-02-06T06:54:31.380Z,12.50
2023-02-06T06:57:05.210Z,14.53
2023-02-06T06:59:36.717Z,11.97
2023-02-06T07:02:10.117Z,13.10
2023-02-06T07:04:44.692Z,16.47
2023-02-06T07:07:19.449Z,12.73
2023-02-06T07:09:50.055Z,12.17
2023-02-06T07:12:23.064Z,12.50
2023-02-06T07:14:54.226Z,13.87
2023-02-06T07:17:25.428Z,13.70
2023-02-06T07:19:56.756Z,13.77
2023-02-06T07:22:28.552Z,15.40
2023-02-06T07:24:56.924Z,14.73
2023-02-06T07:27:28.322Z,14.93
2023-02-06T07:29:58.271Z,12.77
2023-02-06T07:32:33.654Z,14.30
2023-02-06T07:35:03.409Z,13.03
2023-02-06T07:37:30.872Z,12.90
2023-02-06T07:40:03.130Z,14.57
2023-02-06T07:42:36.210Z,13.90
2023-02-06T07:45:19.031Z,13.63
2023-02-06T07:47:50.221Z,14.53
2023-02-06T07:50:19.996Z,13.50
2023-02-06T07:52:51.042Z,15.33
2023-02-06T07:55:22.263Z,13.87
2023-02-06T07:58:03.356Z,13.70
2023-02-06T08:00:31.890Z,16.17
2023-02-06T08:02:59.814Z,14.20
2023-02-06T08:05:31.524Z,15.93
2023-02-06T08:08:01.436Z,17.37
2023-02-06T08:10:31.580Z,14.23
2023-02-06T08:13:08.156Z,14.57
2023-02-06T08:15:38.438Z,15.50
2023-02-06T08:18:12.374Z,14.27
2023-02-06T08:20:46.483Z,15.33
2023-02-06T08:23:15.036Z,14.63
2023-02-06T08:25:52.536Z,14.50
2023-02-06T08:31:13.771Z,19.63
2023-02-06T08:33:41.695Z,14.20
2023-02-06T08:36:14.123Z,15.53
2023-02-06T08:38:46.341Z,16.67
2023-02-06T08:41:32.955Z,16.50
2023-02-06T08:44:02.504Z,14.20
2023-02-06T08:47:09.215Z,15.03
2023-02-06T08:49:48.710Z,13.60
2023-02-06T08:52:22.001Z,16.13
2023-02-06T08:54:53.851Z,16.67
2023-02-06T08:57:27.083Z,16.50
2023-02-06T08:59:55.694Z,17.27
2023-02-06T09:02:27.348Z,15.53
2023-02-06T09:04:58.204Z,14.97
2023-02-06T09:07:29.241Z,13.13
2023-02-06T09:10:00.320Z,13.53
2023-02-06T09:12:29.707Z,12.97
2023-02-06T09:15:01.288Z,15.20
2023-02-06T09:17:33.757Z,13.30
2023-02-06T09:20:06.027Z,11.93
2023-02-06T09:22:38.877Z,13.50
2023-02-06T09:25:12.359Z,32.27
2023-02-06T09:27:50.087Z,17.17
2023-02-06T09:30:19.247Z,24.13
2023-02-06T09:32:49.161Z,19.60
2023-02-06T09:35:18.284Z,29.33
2023-02-06T09:37:52.763Z,20.43
2023-02-06T09:40:29.491Z,19.27
2023-02-06T09:43:00.814Z,16.63
2023-02-06T09:45:34.849Z,14.67
2023-02-06T09:48:36.450Z,14.83
2023-02-06T09:51:22.780Z,17.40
2023-02-06T09:54:18.717Z,14.67
2023-02-06T09:57:24.329Z,12.70
2023-02-06T10:00:13.987Z,13.63
2023-02-06T10:03:24.055Z,14.10
2023-02-06T10:06:20.364Z,12.80
2023-02-06T10:13:06.648Z,12.80
2023-02-06T10:15:50.900Z,11.77
2023-02-06T10:18:36.494Z,12.00
2023-02-06T10:21:48.443Z,14.10
2023-02-06T10:24:46.929Z,13.23
2023-02-06T10:27:17.875Z,11.50
2023-02-06T10:29:48.457Z,12.90
2023-02-06T10:32:42.418Z,12.03
2023-02-06T10:35:43.663Z,11.00
2023-02-06T10:38:30.468Z,15.23
2023-02-06T10:41:27.359Z,11.77
2023-02-06T10:44:46.429Z,12.07
2023-02-06T10:47:45.084Z,12.77
2023-02-06T10:50:37.482Z,13.23
2023-02-06T10:53:22.448Z,14.43
2023-02-06T10:56:01.835Z,10.17
2023-02-06T10:58:35.898Z,11.90
2023-02-06T11:01:23.640Z,12.53
2023-02-06T11:04:28.053Z,13.17
2023-02-06T11:07:04.534Z,12.43
2023-02-06T11:09:37.120Z,10.70
2023-02-06T11:12:06.228Z,10.93
2023-02-06T11:14:41.530Z,11.33
2023-02-06T11:17:11.570Z,11.67
2023-02-06T11:19:44.975Z,11.20
2023-02-06T11:22:51.104Z,10.60
2023-02-06T11:25:36.999Z,9.97
2023-02-06T11:28:16.399Z,8.63
2023-02-06T11:31:11.569Z,7.07
2023-02-06T11:34:01.263Z,7.73
2023-02-06T11:36:53.310Z,8.60
2023-02-06T11:39:43.066Z,8.43
2023-02-06T11:42:27.461Z,7.60
2023-02-06T11:45:00.631Z,7.90
2023-02-06T11:47:50.085Z,8.90
2023-02-06T11:50:43.949Z,8.37
2023-02-06T11:53:20.832Z,9.30
2023-02-06T11:56:17.434Z,9.03
2023-02-06T11:58:48.524Z,8.97
2023-02-06T12:01:24.816Z,8.53
2023-02-06T12:04:34.440Z,9.00
2023-02-06T12:07:30.392Z,9.47
2023-02-06T12:10:07.425Z,10.43
2023-02-06T12:12:41.053Z,8.37
2023-02-06T12:15:46.694Z,9.53
2023-02-06T12:18:24.732Z,9.93
2023-02-06T12:21:22.962Z,8.70
2023-02-06T12:24:11.002Z,8.80
2023-02-06T12:26:45.375Z,8.80
2023-02-06T12:29:40.352Z,8.67
2023-02-06T12:32:19.051Z,9.23
2023-02-06T12:34:58.061Z,9.67
2023-02-06T12:37:57.428Z,9.57
2023-02-06T12:40:54.123Z,9.57
2023-02-06T12:43:24.208Z,9.33
2023-02-06T12:46:17.416Z,10.97
2023-02-06T12:49:07.950Z,10.23
2023-02-06T12:51:59.349Z,9.73
2023-02-06T12:54:34.862Z,10.10
2023-02-06T12:57:21.260Z,9.93
2023-02-06T13:00:16.674Z,9.80
2023-02-06T13:03:07.554Z,10.07
2023-02-06T13:05:49.211Z,10.00
2023-02-06T13:08:59.260Z,10.40
2023-02-06T13:11:43.717Z,10.53
2023-02-06T13:14:30.357Z,10.30
2023-02-06T13:17:15.248Z,13.80
2023-02-06T13:19:50.547Z,11.87
2023-02-06T13:22:36.497Z,10.43
2023-02-06T13:25:53.437Z,10.63
2023-02-06T13:28:46.026Z,11.40
2023-02-06T13:31:30.402Z,10.93
2023-02-06T13:34:03.587Z,10.40
2023-02-06T13:36:54.553Z,10.73
2023-02-06T13:39:30.398Z,12.23
2023-02-06T13:42:26.453Z,11.10
2023-02-06T13:44:54.044Z,12.97
2023-02-06T13:47:44.786Z,11.93
2023-02-06T13:50:48.494Z,13.50
2023-02-06T13:53:59.085Z,13.27
2023-02-06T13:57:09.783Z,11.77
2023-02-06T14:00:05.207Z,13.13
2023-02-06T14:03:06.879Z,11.47
2023-02-06T14:06:02.578Z,11.33
2023-02-06T14:09:09.211Z,9.63
2023-02-06T14:12:33.072Z,10.77
2023-02-06T14:15:23.822Z,11.23
2023-02-06T14:18:20.307Z,11.43
2023-02-06T14:21:26.744Z,10.43
2023-02-06T14:24:15.749Z,13.97
2023-02-06T14:27:29.279Z,13.10
2023-02-06T14:30:21.579Z,18.63
2023-02-06T14:33:28.737Z,21.77
2023-02-06T14:36:14.499Z,17.87
2023-02-06T14:39:24.336Z,11.87
2023-02-06T14:41:57.271Z,10.83
2023-02-06T14:44:31.043Z,14.00
2023-02-06T14:47:01.667Z,11.50
2023-02-06T14:49:39.681Z,9.33
2023-02-06T14:52:22.077Z,11.30
2023-02-06T14:54:52.448Z,10.53
2023-02-06T14:57:42.212Z,12.60
2023-02-06T15:00:24.110Z,9.70
2023-02-06T15:03:26.477Z,11.00
2023-02-06T15:06:22.020Z,8.63
2023-02-06T15:08:54.392Z,9.03
2023-02-06T15:11:33.046Z,9.77
2023-02-06T15:14:19.483Z,9.30
2023-02-06T15:16:53.497Z,9.07
2023-02-06T15:19:35.753Z,8.03
2023-02-06T15:22:20.636Z,9.90
2023-02-06T15:25:27.582Z,9.17
2023-02-06T15:28:13.576Z,10.10
2023-02-06T15:30:44.007Z,11.13
2023-02-06T15:33:25.105Z,10.17
2023-02-06T15:36:01.123Z,10.13
2023-02-06T15:38:33.347Z,10.57
2023-02-06T15:41:07.211Z,13.50
2023-02-06T15:43:39.693Z,10.10
2023-02-06T15:46:11.348Z,11.30
2023-02-06T15:49:01.590Z,10.30
2023-02-06T15:51:56.368Z,9.63
2023-02-06T15:57:41.106Z,10.07
2023-02-06T16:00:26.239Z,9.20
2023-02-06T16:03:02.138Z,9.00
2023-02-06T16:05:38.633Z,10.30
2023-02-06T16:08:22.012Z,10.70
2023-02-06T16:10:59.946Z,10.37
2023-02-06T16:13:39.690Z,8.60
2023-02-06T16:16:33.831Z,10.97
2023-02-06T16:19:02.119Z,12.50
2023-02-06T16:21:35.387Z,10.30
2023-02-06T16:24:21.306Z,12.37
2023-02-06T16:26:52.686Z,11.13
2023-02-06T16:29:38.789Z,9.37
2023-02-06T16:32:46.362Z,12.83
2023-02-06T16:35:14.929Z,10.80
2023-02-06T16:37:42.152Z,10.10
2023-02-06T16:40:12.155Z,14.90
2023-02-06T16:42:49.280Z,17.83
2023-02-06T16:45:29.237Z,15.03
2023-02-06T16:48:00.907Z,15.13
2023-02-06T16:50:41.485Z,14.70
2023-02-06T16:53:29.811Z,14.80
2023-02-06T16:56:01.402Z,13.00
2023-02-06T16:58:35.956Z,12.93
2023-02-06T17:01:14.987Z,13.97
2023-02-06T17:03:45.498Z,12.13
2023-02-06T17:06:21.798Z,12.77
2023-02-06T17:08:55.322Z,14.00
2023-02-06T17:11:27.796Z,15.10
2023-02-06T17:14:00.796Z,15.17
2023-02-06T17:16:37.918Z,12.57
2023-02-06T17:19:06.342Z,13.57
2023-02-06T17:21:38.733Z,12.77
2023-02-06T17:24:06.489Z,12.90
2023-02-06T17:26:38.143Z,13.70
2023-02-06T17:29:09.125Z,21.10
2023-02-06T17:31:42.864Z,16.67
2023-02-06T17:34:13.800Z,15.30
2023-02-06T17:36:48.657Z,18.40
2023-02-06T17:39:20.544Z,19.43
2023-02-06T17:41:51.024Z,18.63
2023-02-06T17:44:24.679Z,19.57
2023-02-06T17:46:54.453Z,19.30
2023-02-06T17:49:30.606Z,18.87
2023-02-06T17:52:01.987Z,16.33
2023-02-06T17:54:37.481Z,16.77
2023-02-06T17:57:12.516Z,15.60
2023-02-06T17:59:46.598Z,16.87
2023-02-06T18:02:22.884Z,18.37
2023-02-06T18:04:58.959Z,20.20
2023-02-06T18:07:28.945Z,18.47
2023-02-06T18:10:11.050Z,18.87
2023-02-06T18:12:42.848Z,17.67
2023-02-06T18:15:22.980Z,17.80
2023-02-06T18:17:56.725Z,18.03
2023-02-06T18:20:35.551Z,16.23
2023-02-06T18:23:12.883Z,17.53
2023-02-06T18:25:44.321Z,18.77
2023-02-06T18:28:40.745Z,15.53
2023-02-06T18:31:47.685Z,16.83
2023-02-06T18:34:20.745Z,17.53
2023-02-06T18:37:03.497Z,17.30
2023-02-06T18:39:37.154Z,16.70
2023-02-06T18:42:29.279Z,17.80
2023-02-06T18:45:11.798Z,17.90
2023-02-06T18:47:49.723Z,16.47
2023-02-06T18:50:27.671Z,15.90
2023-02-06T18:53:07.945Z,17.17
2023-02-06T18:55:41.509Z,14.63
2023-02-06T18:58:13.607Z,16.90
2023-02-06T19:00:46.019Z,17.27
2023-02-06T19:03:21.567Z,19.57
2023-02-06T19:06:10.572Z,18.40
2023-02-06T19:08:48.017Z,18.37
2023-02-06T19:11:25.312Z,18.70
2023-02-06T19:14:00.339Z,19.07
2023-02-06T19:16:38.018Z,20.33
2023-02-06T19:19:10.840Z,19.07
2023-02-06T19:21:40.059Z,18.07
2023-02-06T19:29:47.575Z,21.33
2023-02-06T19:32:24.695Z,21.40
2023-02-06T19:34:58.401Z,23.07
2023-02-06T19:37:30.913Z,22.83
2023-02-06T19:40:03.709Z,20.33
2023-02-06T19:42:35.604Z,17.73
2023-02-06T19:45:07.617Z,17.97
2023-02-06T19:47:40.149Z,18.80
2023-02-06T19:50:15.339Z,18.17
2023-02-06T19:52:49.460Z,19.70
2023-02-06T19:55:24.441Z,17.30
2023-02-06T19:58:00.924Z,18.50
2023-02-06T20:00:36.117Z,20.03
2023-02-06T20:03:10.076Z,19.00
2023-02-06T20:05:48.072Z,21.30
2023-02-06T20:08:19.131Z,21.10
2023-02-06T20:10:57.355Z,19.07
2023-02-06T20:13:41.989Z,20.10
2023-02-06T20:16:37.915Z,24.73
2023-02-06T20:19:31.133Z,21.77
2023-02-06T20:22:02.286Z,22.00
2023-02-06T20:24:48.007Z,22.87
2023-02-06T20:27:21.764Z,22.77
2023-02-06T20:29:57.062Z,21.67
2023-02-06T20:32:30.786Z,21.87
2023-02-06T20:35:07.255Z,21.33
2023-02-06T20:37:48.175Z,24.97
2023-02-06T20:40:23.362Z,22.27
2023-02-06T20:42:51.752Z,22.30
2023-02-06T20:45:23.388Z,21.30
2023-02-06T20:47:51.097Z,22.43
2023-02-06T20:50:21.415Z,21.90
2023-02-06T20:52:52.740Z,26.27
2023-02-06T20:55:22.586Z,22.90
2023-02-06T20:57:54.105Z,28.07
2023-02-06T21:00:29.660Z,27.37
2023-02-06T21:02:58.762Z,26.60
2023-02-06T21:05:32.721Z,26.37
2023-02-06T21:08:04.369Z,26.90
2023-02-06T21:10:34.028Z,27.23
2023-02-06T21:13:03.478Z,26.57
2023-02-06T21:15:37.412Z,25.67
2023-02-06T21:18:14.726Z,26.03
2023-02-06T21:20:52.445Z,25.17
2023-02-06T21:23:22.458Z,25.90
2023-02-06T21:25:56.560Z,21.43
2023-02-06T21:28:27.736Z,23.23
2023-02-06T21:31:04.853Z,25.67
2023-02-06T21:33:39.710Z,23.40
2023-02-06T21:36:08.975Z,22.50
2023-02-06T21:38:41.857Z,23.00
2023-02-06T21:41:17.185Z,23.17
2023-02-06T21:43:46.988Z,22.27
2023-02-06T21:46:18.198Z,24.87
2023-02-06T21:48:55.256Z,20.00
2023-02-06T21:51:23.970Z,24.30
2023-02-06T21:53:54.046Z,24.43
2023-02-06T21:56:33.539Z,25.73
2023-02-06T22:01:43.831Z,25.40
2023-02-06T22:04:21.529Z,21.83
2023-02-06T22:06:55.754Z,22.77
2023-02-06T22:09:25.466Z,23.43
2023-02-06T22:11:56.738Z,22.93
2023-02-06T22:17:10.461Z,24.37
2023-02-06T22:19:46.249Z,21.47
2023-02-06T22:22:16.033Z,21.80
2023-02-06T22:24:44.687Z,25.17
2023-02-06T22:27:13.724Z,23.00
2023-02-06T22:29:44.240Z,21.87
2023-02-06T22:32:16.966Z,22.43
2023-02-06T22:34:46.179Z,22.57
2023-02-06T22:37:15.969Z,22.50
2023-02-06T22:39:46.982Z,24.10
2023-02-06T22:42:15.847Z,24.40
2023-02-06T22:44:47.093Z,22.30
2023-02-06T22:47:17.652Z,26.90
2023-02-06T22:50:03.935Z,24.40
2023-02-06T22:52:54.022Z,25.83
2023-02-06T22:55:25.417Z,25.90
2023-02-06T22:57:57.529Z,26.57
2023-02-06T23:00:24.791Z,26.53
2023-02-06T23:02:56.342Z,29.57
2023-02-06T23:05:26.348Z,29.97
2023-02-06T23:07:57.251Z,26.33
2023-02-06T23:10:33.035Z,26.03
2023-02-06T23:13:02.857Z,22.50
2023-02-06T23:15:32.665Z,22.57
2023-02-06T23:18:03.003Z,24.43
2023-02-06T23:20:33.838Z,24.60
2023-02-06T23:23:01.637Z,23.37
2023-02-06T23:25:36.115Z,23.20
2023-02-06T23:28:08.331Z,28.43
2023-02-06T23:30:40.451Z,27.47
2023-02-06T23:33:13.066Z,28.93
2023-02-06T23:35:41.314Z,25.07
2023-02-06T23:38:11.746Z,25.07
2023-02-06T23:40:41.121Z,27.43
2023-02-06T23:43:10.055Z,28.57
2023-02-06T23:45:39.439Z,28.47
2023-02-06T23:48:08.114Z,29.67
2023-02-06T23:50:39.281Z,27.17
2023-02-06T23:53:09.934Z,28.00
2023-02-06T23:55:43.148Z,26.30
2023-02-06T23:58:15.528Z,27.70
